sensor_id;sensor_type;location;lat;lon;timestamp;temperature;humidity
63202;DHT22;49296;48.188;11.566;2023-11-18T00:02:06;5.70;85.77
63202;DHT22;49296;48.188;11.566;2023-11-18T00:04:33;5.77;85.71
63202;DHT22;49296;48.188;11.566;2023-11-18T00:06:59;5.60;85.80
63202;DHT22;49296;48.188;11.566;2023-11-18T00:09:26;5.63;85.90
63202;DHT22;49296;48.188;11.566;2023-11-18T00:11:52;5.53;86.18
63202;DHT22;49296;48.188;11.566;2023-11-18T00:14:20;5.44;86.36
63202;DHT22;49296;48.188;11.566;2023-11-18T00:16:46;5.51;86.34
63202;DHT22;49296;48.188;11.566;2023-11-18T00:19:13;5.39;86.51
63202;DHT22;49296;48.188;11.566;2023-11-18T00:21:39;5.40;86.79
63202;DHT22;49296;48.188;11.566;2023-11-18T00:24:06;5.39;86.82
63202;DHT22;49296;48.188;11.566;2023-11-18T00:26:33;5.33;87.03
63202;DHT22;49296;48.188;11.566;2023-11-18T00:28:59;5.35;86.99
63202;DHT22;49296;48.188;11.566;2023-11-18T00:31:27;5.44;86.73
63202;DHT22;49296;48.188;11.566;2023-11-18T00:33:54;5.49;86.43
63202;DHT22;49296;48.188;11.566;2023-11-18T00:36:21;5.39;86.48
63202;DHT22;49296;48.188;11.566;2023-11-18T00:38:47;5.43;86.53
63202;DHT22;49296;48.188;11.566;2023-11-18T00:41:14;5.23;86.82
63202;DHT22;49296;48.188;11.566;2023-11-18T00:43:42;5.25;87.01
63202;DHT22;49296;48.188;11.566;2023-11-18T00:46:08;5.23;86.70
63202;DHT22;49296;48.188;11.566;2023-11-18T00:48:36;5.28;86.50
63202;DHT22;49296;48.188;11.566;2023-11-18T00:51:03;5.14;86.58
63202;DHT22;49296;48.188;11.566;2023-11-18T00:53:30;5.21;86.46
63202;DHT22;49296;48.188;11.566;2023-11-18T00:55:56;5.23;86.63
63202;DHT22;49296;48.188;11.566;2023-11-18T00:58:23;5.19;86.74
63202;DHT22;49296;48.188;11.566;2023-11-18T01:00:49;5.28;86.66
63202;DHT22;49296;48.188;11.566;2023-11-18T01:03:15;5.18;86.77
63202;DHT22;49296;48.188;11.566;2023-11-18T01:05:43;5.32;86.48
63202;DHT22;49296;48.188;11.566;2023-11-18T01:08:09;5.38;86.28
63202;DHT22;49296;48.188;11.566;2023-11-18T01:10:36;5.38;86.05
63202;DHT22;49296;48.188;11.566;2023-11-18T01:13:03;5.32;85.96
63202;DHT22;49296;48.188;11.566;2023-11-18T01:15:31;5.15;86.19
63202;DHT22;49296;48.188;11.566;2023-11-18T01:17:58;5.30;86.16
63202;DHT22;49296;48.188;11.566;2023-11-18T01:20:24;5.28;85.69
63202;DHT22;49296;48.188;11.566;2023-11-18T01:22:52;5.36;85.88
63202;DHT22;49296;48.188;11.566;2023-11-18T01:25:19;5.25;85.89
63202;DHT22;49296;48.188;11.566;2023-11-18T01:27:45;5.22;85.84
63202;DHT22;49296;48.188;11.566;2023-11-18T01:30:13;5.29;85.83
63202;DHT22;49296;48.188;11.566;2023-11-18T01:32:39;5.35;86.01
63202;DHT22;49296;48.188;11.566;2023-11-18T01:35:06;5.19;86.12
63202;DHT22;49296;48.188;11.566;2023-11-18T01:37:33;5.29;85.87
63202;DHT22;49296;48.188;11.566;2023-11-18T01:40:01;5.35;85.73
63202;DHT22;49296;48.188;11.566;2023-11-18T01:42:30;5.21;86.09
63202;DHT22;49296;48.188;11.566;2023-11-18T01:44:57;5.21;86.06
63202;DHT22;49296;48.188;11.566;2023-11-18T01:47:24;5.21;85.86
63202;DHT22;49296;48.188;11.566;2023-11-18T01:49:51;5.21;86.13
63202;DHT22;49296;48.188;11.566;2023-11-18T01:52:18;5.21;86.15
63202;DHT22;49296;48.188;11.566;2023-11-18T01:54:46;5.23;85.83
63202;DHT22;49296;48.188;11.566;2023-11-18T01:57:15;5.36;85.60
63202;DHT22;49296;48.188;11.566;2023-11-18T01:59:41;5.32;85.68
63202;DHT22;49296;48.188;11.566;2023-11-18T02:02:08;5.29;85.57
63202;DHT22;49296;48.188;11.566;2023-11-18T02:04:34;5.36;85.61
63202;DHT22;49296;48.188;11.566;2023-11-18T02:07:01;5.38;85.33
63202;DHT22;49296;48.188;11.566;2023-11-18T02:09:29;5.32;85.51
63202;DHT22;49296;48.188;11.566;2023-11-18T02:11:56;5.42;85.43
63202;DHT22;49296;48.188;11.566;2023-11-18T02:14:28;5.36;85.56
63202;DHT22;49296;48.188;11.566;2023-11-18T02:16:55;5.29;85.49
63202;DHT22;49296;48.188;11.566;2023-11-18T02:19:23;5.29;85.71
63202;DHT22;49296;48.188;11.566;2023-11-18T02:21:50;5.18;85.82
63202;DHT22;49296;48.188;11.566;2023-11-18T02:24:25;5.21;85.85
63202;DHT22;49296;48.188;11.566;2023-11-18T02:26:56;5.21;86.00
63202;DHT22;49296;48.188;11.566;2023-11-18T02:29:22;5.29;85.79
63202;DHT22;49296;48.188;11.566;2023-11-18T02:31:49;5.22;85.62
63202;DHT22;49296;48.188;11.566;2023-11-18T02:34:19;5.21;85.96
63202;DHT22;49296;48.188;11.566;2023-11-18T02:36:48;5.32;85.76
63202;DHT22;49296;48.188;11.566;2023-11-18T02:39:16;5.14;86.02
63202;DHT22;49296;48.188;11.566;2023-11-18T02:41:46;5.33;85.96
63202;DHT22;49296;48.188;11.566;2023-11-18T02:44:14;5.32;85.60
63202;DHT22;49296;48.188;11.566;2023-11-18T02:46:42;5.29;85.64
63202;DHT22;49296;48.188;11.566;2023-11-18T02:49:09;5.40;85.54
63202;DHT22;49296;48.188;11.566;2023-11-18T02:51:37;5.28;85.74
63202;DHT22;49296;48.188;11.566;2023-11-18T02:54:04;5.18;85.94
63202;DHT22;49296;48.188;11.566;2023-11-18T02:56:31;5.21;86.08
63202;DHT22;49296;48.188;11.566;2023-11-18T02:58:58;5.22;86.08
63202;DHT22;49296;48.188;11.566;2023-11-18T03:01:25;5.11;86.05
63202;DHT22;49296;48.188;11.566;2023-11-18T03:03:52;5.32;85.80
63202;DHT22;49296;48.188;11.566;2023-11-18T03:06:20;5.47;85.53
63202;DHT22;49296;48.188;11.566;2023-11-18T03:08:46;5.39;85.53
63202;DHT22;49296;48.188;11.566;2023-11-18T03:11:12;5.39;85.43
63202;DHT22;49296;48.188;11.566;2023-11-18T03:13:39;5.22;85.49
63202;DHT22;49296;48.188;11.566;2023-11-18T03:16:06;5.21;85.73
63202;DHT22;49296;48.188;11.566;2023-11-18T03:18:37;5.25;85.84
63202;DHT22;49296;48.188;11.566;2023-11-18T03:21:05;5.30;85.66
63202;DHT22;49296;48.188;11.566;2023-11-18T03:23:32;5.21;85.83
63202;DHT22;49296;48.188;11.566;2023-11-18T03:25:58;5.33;85.81
63202;DHT22;49296;48.188;11.566;2023-11-18T03:28:25;5.42;85.46
63202;DHT22;49296;48.188;11.566;2023-11-18T03:30:51;5.28;85.37
63202;DHT22;49296;48.188;11.566;2023-11-18T03:33:19;5.40;85.35
63202;DHT22;49296;48.188;11.566;2023-11-18T03:35:46;5.26;85.71
63202;DHT22;49296;48.188;11.566;2023-11-18T03:38:13;5.28;85.88
63202;DHT22;49296;48.188;11.566;2023-11-18T03:40:42;5.26;85.76
63202;DHT22;49296;48.188;11.566;2023-11-18T03:43:10;5.23;85.78
63202;DHT22;49296;48.188;11.566;2023-11-18T03:45:38;5.16;85.97
63202;DHT22;49296;48.188;11.566;2023-11-18T03:48:04;5.23;85.88
63202;DHT22;49296;48.188;11.566;2023-11-18T03:50:31;5.23;85.99
63202;DHT22;49296;48.188;11.566;2023-11-18T03:52:59;5.42;85.64
63202;DHT22;49296;48.188;11.566;2023-11-18T03:55:26;5.30;85.45
63202;DHT22;49296;48.188;11.566;2023-11-18T03:57:52;5.16;85.78
63202;DHT22;49296;48.188;11.566;2023-11-18T04:00:19;5.25;85.75
63202;DHT22;49296;48.188;11.566;2023-11-18T04:02:46;5.32;85.89
63202;DHT22;49296;48.188;11.566;2023-11-18T04:05:13;5.22;86.11
63202;DHT22;49296;48.188;11.566;2023-11-18T04:07:39;5.25;86.22
63202;DHT22;49296;48.188;11.566;2023-11-18T04:10:08;5.16;86.34
63202;DHT22;49296;48.188;11.566;2023-11-18T04:12:35;5.07;86.52
63202;DHT22;49296;48.188;11.566;2023-11-18T04:15:02;5.11;86.78
63202;DHT22;49296;48.188;11.566;2023-11-18T04:17:29;5.19;86.45
63202;DHT22;49296;48.188;11.566;2023-11-18T04:19:56;5.23;86.18
63202;DHT22;49296;48.188;11.566;2023-11-18T04:22:22;4.99;86.46
63202;DHT22;49296;48.188;11.566;2023-11-18T04:24:49;4.99;86.73
63202;DHT22;49296;48.188;11.566;2023-11-18T04:27:17;4.92;87.13
63202;DHT22;49296;48.188;11.566;2023-11-18T04:29:43;5.12;86.65
63202;DHT22;49296;48.188;11.566;2023-11-18T04:32:10;5.25;86.12
63202;DHT22;49296;48.188;11.566;2023-11-18T04:34:39;5.25;86.06
63202;DHT22;49296;48.188;11.566;2023-11-18T04:37:07;5.30;85.95
63202;DHT22;49296;48.188;11.566;2023-11-18T04:39:34;5.36;85.82
63202;DHT22;49296;48.188;11.566;2023-11-18T04:42:00;5.57;85.38
63202;DHT22;49296;48.188;11.566;2023-11-18T04:44:28;5.42;85.50
63202;DHT22;49296;48.188;11.566;2023-11-18T04:46:56;5.56;85.18
63202;DHT22;49296;48.188;11.566;2023-11-18T04:49:22;5.71;84.91
63202;DHT22;49296;48.188;11.566;2023-11-18T04:51:49;5.68;84.46
63202;DHT22;49296;48.188;11.566;2023-11-18T04:54:15;5.68;84.82
63202;DHT22;49296;48.188;11.566;2023-11-18T04:56:42;5.54;85.08
63202;DHT22;49296;48.188;11.566;2023-11-18T04:59:09;5.68;84.73
63202;DHT22;49296;48.188;11.566;2023-11-18T05:01:37;5.83;84.41
63202;DHT22;49296;48.188;11.566;2023-11-18T05:04:03;5.74;84.20
63202;DHT22;49296;48.188;11.566;2023-11-18T05:06:31;5.71;84.39
63202;DHT22;49296;48.188;11.566;2023-11-18T05:08:57;5.61;84.59
63202;DHT22;49296;48.188;11.566;2023-11-18T05:11:24;5.58;84.63
63202;DHT22;49296;48.188;11.566;2023-11-18T05:13:50;5.58;84.74
63202;DHT22;49296;48.188;11.566;2023-11-18T05:16:17;5.67;84.55
63202;DHT22;49296;48.188;11.566;2023-11-18T05:18:45;5.54;84.73
63202;DHT22;49296;48.188;11.566;2023-11-18T05:21:11;5.58;84.84
63202;DHT22;49296;48.188;11.566;2023-11-18T05:23:38;5.42;84.87
63202;DHT22;49296;48.188;11.566;2023-11-18T05:26:04;5.46;84.95
63202;DHT22;49296;48.188;11.566;2023-11-18T05:28:31;5.42;85.04
63202;DHT22;49296;48.188;11.566;2023-11-18T05:30:57;5.35;85.12
63202;DHT22;49296;48.188;11.566;2023-11-18T05:33:26;5.43;85.09
63202;DHT22;49296;48.188;11.566;2023-11-18T05:35:55;5.15;85.57
63202;DHT22;49296;48.188;11.566;2023-11-18T05:38:21;5.43;85.46
63202;DHT22;49296;48.188;11.566;2023-11-18T05:40:49;5.33;85.18
63202;DHT22;49296;48.188;11.566;2023-11-18T05:43:21;5.18;85.71
63202;DHT22;49296;48.188;11.566;2023-11-18T05:45:48;5.25;85.50
63202;DHT22;49296;48.188;11.566;2023-11-18T05:48:37;5.28;85.55
63202;DHT22;49296;48.188;11.566;2023-11-18T05:51:05;5.35;85.37
63202;DHT22;49296;48.188;11.566;2023-11-18T05:53:32;5.30;85.37
63202;DHT22;49296;48.188;11.566;2023-11-18T05:55:58;5.18;85.72
63202;DHT22;49296;48.188;11.566;2023-11-18T05:58:25;5.26;85.65
63202;DHT22;49296;48.188;11.566;2023-11-18T06:00:51;5.19;85.80
63202;DHT22;49296;48.188;11.566;2023-11-18T06:03:17;5.18;85.78
63202;DHT22;49296;48.188;11.566;2023-11-18T06:05:45;5.25;85.64
63202;DHT22;49296;48.188;11.566;2023-11-18T06:08:13;5.36;85.45
63202;DHT22;49296;48.188;11.566;2023-11-18T06:10:39;5.28;85.46
63202;DHT22;49296;48.188;11.566;2023-11-18T06:13:05;5.36;85.36
63202;DHT22;49296;48.188;11.566;2023-11-18T06:15:34;5.33;85.51
63202;DHT22;49296;48.188;11.566;2023-11-18T06:18:00;5.38;85.40
63202;DHT22;49296;48.188;11.566;2023-11-18T06:20:28;5.32;85.54
63202;DHT22;49296;48.188;11.566;2023-11-18T06:22:54;5.23;85.57
63202;DHT22;49296;48.188;11.566;2023-11-18T06:25:22;5.23;85.61
63202;DHT22;49296;48.188;11.566;2023-11-18T06:27:51;5.39;85.62
63202;DHT22;49296;48.188;11.566;2023-11-18T06:30:17;5.29;85.49
63202;DHT22;49296;48.188;11.566;2023-11-18T06:32:44;5.21;85.94
63202;DHT22;49296;48.188;11.566;2023-11-18T06:35:12;5.29;85.83
63202;DHT22;49296;48.188;11.566;2023-11-18T06:37:39;5.16;86.20
63202;DHT22;49296;48.188;11.566;2023-11-18T06:40:08;5.15;86.48
63202;DHT22;49296;48.188;11.566;2023-11-18T06:42:42;5.19;86.43
63202;DHT22;49296;48.188;11.566;2023-11-18T06:45:12;5.23;86.21
63202;DHT22;49296;48.188;11.566;2023-11-18T06:47:38;5.33;86.08
63202;DHT22;49296;48.188;11.566;2023-11-18T06:50:08;5.30;85.96
63202;DHT22;49296;48.188;11.566;2023-11-18T06:52:36;5.40;86.00
63202;DHT22;49296;48.188;11.566;2023-11-18T06:55:03;5.46;85.81
63202;DHT22;49296;48.188;11.566;2023-11-18T06:57:30;5.29;85.95
63202;DHT22;49296;48.188;11.566;2023-11-18T06:59:58;5.49;85.76
63202;DHT22;49296;48.188;11.566;2023-11-18T07:02:25;5.47;85.63
63202;DHT22;49296;48.188;11.566;2023-11-18T07:04:51;5.61;85.29
63202;DHT22;49296;48.188;11.566;2023-11-18T07:07:17;5.56;85.35
63202;DHT22;49296;48.188;11.566;2023-11-18T07:09:44;5.60;85.05
63202;DHT22;49296;48.188;11.566;2023-11-18T07:12:10;5.66;84.96
63202;DHT22;49296;48.188;11.566;2023-11-18T07:14:37;5.75;84.80
63202;DHT22;49296;48.188;11.566;2023-11-18T07:17:04;5.71;84.74
63202;DHT22;49296;48.188;11.566;2023-11-18T07:19:31;5.67;84.78
63202;DHT22;49296;48.188;11.566;2023-11-18T07:21:58;5.70;84.75
63202;DHT22;49296;48.188;11.566;2023-11-18T07:24:25;5.92;84.41
63202;DHT22;49296;48.188;11.566;2023-11-18T07:26:51;5.90;84.31
63202;DHT22;49296;48.188;11.566;2023-11-18T07:29:17;5.85;84.46
63202;DHT22;49296;48.188;11.566;2023-11-18T07:31:44;6.02;84.21
63202;DHT22;49296;48.188;11.566;2023-11-18T07:34:12;6.11;84.09
63202;DHT22;49296;48.188;11.566;2023-11-18T07:36:38;5.98;84.04
63202;DHT22;49296;48.188;11.566;2023-11-18T07:39:05;6.06;84.08
63202;DHT22;49296;48.188;11.566;2023-11-18T07:41:40;5.99;84.09
63202;DHT22;49296;48.188;11.566;2023-11-18T07:44:07;6.02;84.00
63202;DHT22;49296;48.188;11.566;2023-11-18T07:46:35;5.87;84.00
63202;DHT22;49296;48.188;11.566;2023-11-18T07:49:03;5.90;84.53
63202;DHT22;49296;48.188;11.566;2023-11-18T07:51:33;5.90;84.33
63202;DHT22;49296;48.188;11.566;2023-11-18T07:53:59;5.94;84.46
63202;DHT22;49296;48.188;11.566;2023-11-18T07:56:25;5.78;84.65
63202;DHT22;49296;48.188;11.566;2023-11-18T07:58:53;5.70;84.86
63202;DHT22;49296;48.188;11.566;2023-11-18T08:01:20;5.83;84.83
63202;DHT22;49296;48.188;11.566;2023-11-18T08:03:47;5.97;84.43
63202;DHT22;49296;48.188;11.566;2023-11-18T08:06:13;5.97;84.25
63202;DHT22;49296;48.188;11.566;2023-11-18T08:08:41;5.99;84.31
63202;DHT22;49296;48.188;11.566;2023-11-18T08:11:10;6.15;84.06
63202;DHT22;49296;48.188;11.566;2023-11-18T08:13:36;6.15;83.90
63202;DHT22;49296;48.188;11.566;2023-11-18T08:16:03;6.18;83.98
63202;DHT22;49296;48.188;11.566;2023-11-18T08:18:29;6.18;83.71
63202;DHT22;49296;48.188;11.566;2023-11-18T08:20:57;6.13;83.78
63202;DHT22;49296;48.188;11.566;2023-11-18T08:23:25;6.13;83.65
63202;DHT22;49296;48.188;11.566;2023-11-18T08:25:54;6.22;83.54
63202;DHT22;49296;48.188;11.566;2023-11-18T08:28:20;6.22;83.51
63202;DHT22;49296;48.188;11.566;2023-11-18T08:30:47;6.23;83.72
63202;DHT22;49296;48.188;11.566;2023-11-18T08:33:16;6.33;83.54
63202;DHT22;49296;48.188;11.566;2023-11-18T08:35:43;6.28;83.43
63202;DHT22;49296;48.188;11.566;2023-11-18T08:38:09;6.36;83.28
63202;DHT22;49296;48.188;11.566;2023-11-18T08:40:37;6.44;83.30
63202;DHT22;49296;48.188;11.566;2023-11-18T08:43:05;6.34;83.18
63202;DHT22;49296;48.188;11.566;2023-11-18T08:45:32;6.36;83.31
63202;DHT22;49296;48.188;11.566;2023-11-18T08:48:00;6.54;83.18
63202;DHT22;49296;48.188;11.566;2023-11-18T08:50:27;6.41;82.81
63202;DHT22;49296;48.188;11.566;2023-11-18T08:52:54;6.33;83.01
63202;DHT22;49296;48.188;11.566;2023-11-18T08:55:22;6.48;82.73
63202;DHT22;49296;48.188;11.566;2023-11-18T08:58:05;6.72;82.42
63202;DHT22;49296;48.188;11.566;2023-11-18T09:00:41;6.68;82.55
63202;DHT22;49296;48.188;11.566;2023-11-18T09:03:15;6.75;82.17
63202;DHT22;49296;48.188;11.566;2023-11-18T09:05:50;6.78;82.08
63202;DHT22;49296;48.188;11.566;2023-11-18T09:08:23;6.82;82.08
63202;DHT22;49296;48.188;11.566;2023-11-18T09:10:50;6.81;81.58
63202;DHT22;49296;48.188;11.566;2023-11-18T09:13:20;6.95;81.59
63202;DHT22;49296;48.188;11.566;2023-11-18T09:15:47;6.98;81.56
63202;DHT22;49296;48.188;11.566;2023-11-18T09:18:13;6.81;80.97
63202;DHT22;49296;48.188;11.566;2023-11-18T09:20:40;6.63;82.12
63202;DHT22;49296;48.188;11.566;2023-11-18T09:23:07;6.99;81.64
63202;DHT22;49296;48.188;11.566;2023-11-18T09:25:34;7.08;81.08
63202;DHT22;49296;48.188;11.566;2023-11-18T09:28:01;7.08;81.18
63202;DHT22;49296;48.188;11.566;2023-11-18T09:30:29;7.12;80.91
63202;DHT22;49296;48.188;11.566;2023-11-18T09:32:59;7.26;80.94
63202;DHT22;49296;48.188;11.566;2023-11-18T09:35:27;7.40;80.13
63202;DHT22;49296;48.188;11.566;2023-11-18T09:37:54;7.15;80.32
63202;DHT22;49296;48.188;11.566;2023-11-18T09:40:20;7.42;80.14
63202;DHT22;49296;48.188;11.566;2023-11-18T09:42:50;7.24;79.55
63202;DHT22;49296;48.188;11.566;2023-11-18T09:45:16;7.13;80.17
63202;DHT22;49296;48.188;11.566;2023-11-18T09:47:46;7.12;80.22
63202;DHT22;49296;48.188;11.566;2023-11-18T09:50:15;7.16;79.59
63202;DHT22;49296;48.188;11.566;2023-11-18T09:52:47;7.19;80.14
63202;DHT22;49296;48.188;11.566;2023-11-18T09:55:19;7.42;79.46
63202;DHT22;49296;48.188;11.566;2023-11-18T09:57:49;7.44;79.55
63202;DHT22;49296;48.188;11.566;2023-11-18T10:00:22;7.42;79.65
63202;DHT22;49296;48.188;11.566;2023-11-18T10:02:53;7.38;79.82
63202;DHT22;49296;48.188;11.566;2023-11-18T10:05:22;7.23;79.37
63202;DHT22;49296;48.188;11.566;2023-11-18T10:07:48;7.50;79.44
63202;DHT22;49296;48.188;11.566;2023-11-18T10:10:14;7.44;78.80
63202;DHT22;49296;48.188;11.566;2023-11-18T10:12:41;7.36;78.60
63202;DHT22;49296;48.188;11.566;2023-11-18T10:15:10;7.51;78.40
63202;DHT22;49296;48.188;11.566;2023-11-18T10:17:37;7.68;78.32
63202;DHT22;49296;48.188;11.566;2023-11-18T10:20:21;7.53;78.32
63202;DHT22;49296;48.188;11.566;2023-11-18T10:23:00;7.61;77.85
63202;DHT22;49296;48.188;11.566;2023-11-18T10:25:31;7.67;77.80
63202;DHT22;49296;48.188;11.566;2023-11-18T10:28:00;7.57;77.54
63202;DHT22;49296;48.188;11.566;2023-11-18T10:30:27;7.78;77.09
63202;DHT22;49296;48.188;11.566;2023-11-18T10:32:57;7.86;76.57
63202;DHT22;49296;48.188;11.566;2023-11-18T10:35:31;7.70;75.98
63202;DHT22;49296;48.188;11.566;2023-11-18T10:38:00;7.65;76.08
63202;DHT22;49296;48.188;11.566;2023-11-18T10:40:31;7.61;76.19
63202;DHT22;49296;48.188;11.566;2023-11-18T10:43:00;7.75;76.25
63202;DHT22;49296;48.188;11.566;2023-11-18T10:45:26;7.89;75.49
63202;DHT22;49296;48.188;11.566;2023-11-18T10:47:53;7.82;75.20
63202;DHT22;49296;48.188;11.566;2023-11-18T10:50:22;7.92;75.05
63202;DHT22;49296;48.188;11.566;2023-11-18T10:52:58;7.86;73.95
63202;DHT22;49296;48.188;11.566;2023-11-18T10:55:34;7.75;74.69
63202;DHT22;49296;48.188;11.566;2023-11-18T10:58:00;7.89;74.28
63202;DHT22;49296;48.188;11.566;2023-11-18T11:00:27;7.88;73.72
63202;DHT22;49296;48.188;11.566;2023-11-18T11:02:58;7.79;73.38
63202;DHT22;49296;48.188;11.566;2023-11-18T11:05:27;8.03;73.62
63202;DHT22;49296;48.188;11.566;2023-11-18T11:07:59;8.17;73.06
63202;DHT22;49296;48.188;11.566;2023-11-18T11:10:26;8.30;73.12
63202;DHT22;49296;48.188;11.566;2023-11-18T11:12:53;8.41;73.08
63202;DHT22;49296;48.188;11.566;2023-11-18T11:15:22;8.37;71.39
63202;DHT22;49296;48.188;11.566;2023-11-18T11:17:51;8.62;72.76
63202;DHT22;49296;48.188;11.566;2023-11-18T11:20:20;8.72;71.11
63202;DHT22;49296;48.188;11.566;2023-11-18T11:22:56;8.64;70.53
63202;DHT22;49296;48.188;11.566;2023-11-18T11:25:25;8.52;69.88
63202;DHT22;49296;48.188;11.566;2023-11-18T11:27:54;8.54;68.67
63202;DHT22;49296;48.188;11.566;2023-11-18T11:30:28;8.50;68.97
63202;DHT22;49296;48.188;11.566;2023-11-18T11:32:59;8.55;68.94
63202;DHT22;49296;48.188;11.566;2023-11-18T11:35:30;8.48;68.55
63202;DHT22;49296;48.188;11.566;2023-11-18T11:37:58;8.36;69.11
63202;DHT22;49296;48.188;11.566;2023-11-18T11:40:31;8.26;69.05
63202;DHT22;49296;48.188;11.566;2023-11-18T11:42:57;8.29;68.86
63202;DHT22;49296;48.188;11.566;2023-11-18T11:45:26;8.42;68.32
63202;DHT22;49296;48.188;11.566;2023-11-18T11:47:54;8.44;67.46
63202;DHT22;49296;48.188;11.566;2023-11-18T11:50:38;8.26;67.62
63202;DHT22;49296;48.188;11.566;2023-11-18T11:53:09;8.24;68.49
63202;DHT22;49296;48.188;11.566;2023-11-18T11:55:41;8.37;68.45
63202;DHT22;49296;48.188;11.566;2023-11-18T11:58:25;8.36;68.56
63202;DHT22;49296;48.188;11.566;2023-11-18T12:00:52;8.52;68.90
63202;DHT22;49296;48.188;11.566;2023-11-18T12:03:21;8.30;69.17
63202;DHT22;49296;48.188;11.566;2023-11-18T12:05:47;8.23;69.77
63202;DHT22;49296;48.188;11.566;2023-11-18T12:08:14;8.03;70.65
63202;DHT22;49296;48.188;11.566;2023-11-18T12:10:43;8.10;69.95
63202;DHT22;49296;48.188;11.566;2023-11-18T12:13:16;8.05;70.01
63202;DHT22;49296;48.188;11.566;2023-11-18T12:15:47;8.14;69.18
63202;DHT22;49296;48.188;11.566;2023-11-18T12:18:19;8.27;69.09
63202;DHT22;49296;48.188;11.566;2023-11-18T12:20:47;8.29;68.64
63202;DHT22;49296;48.188;11.566;2023-11-18T12:23:13;8.23;69.49
63202;DHT22;49296;48.188;11.566;2023-11-18T12:25:42;8.34;69.75
63202;DHT22;49296;48.188;11.566;2023-11-18T12:28:08;8.38;68.87
63202;DHT22;49296;48.188;11.566;2023-11-18T12:30:38;8.33;67.66
63202;DHT22;49296;48.188;11.566;2023-11-18T12:33:06;8.23;67.99
63202;DHT22;49296;48.188;11.566;2023-11-18T12:35:35;8.47;68.17
63202;DHT22;49296;48.188;11.566;2023-11-18T12:38:09;8.48;67.39
63202;DHT22;49296;48.188;11.566;2023-11-18T12:40:53;8.52;67.59
63202;DHT22;49296;48.188;11.566;2023-11-18T12:43:27;8.31;67.05
63202;DHT22;49296;48.188;11.566;2023-11-18T12:46:11;8.36;67.72
63202;DHT22;49296;48.188;11.566;2023-11-18T12:48:45;8.51;67.78
63202;DHT22;49296;48.188;11.566;2023-11-18T12:51:16;8.55;67.10
63202;DHT22;49296;48.188;11.566;2023-11-18T12:53:47;8.52;66.90
63202;DHT22;49296;48.188;11.566;2023-11-18T12:56:15;8.51;67.36
63202;DHT22;49296;48.188;11.566;2023-11-18T12:58:42;8.45;67.29
63202;DHT22;49296;48.188;11.566;2023-11-18T13:01:08;8.48;67.49
63202;DHT22;49296;48.188;11.566;2023-11-18T13:03:39;8.64;67.56
63202;DHT22;49296;48.188;11.566;2023-11-18T13:06:07;8.65;67.11
63202;DHT22;49296;48.188;11.566;2023-11-18T13:08:33;8.54;67.28
63202;DHT22;49296;48.188;11.566;2023-11-18T13:11:00;8.62;67.42
63202;DHT22;49296;48.188;11.566;2023-11-18T13:13:31;8.50;68.20
63202;DHT22;49296;48.188;11.566;2023-11-18T13:15:59;8.86;68.21
63202;DHT22;49296;48.188;11.566;2023-11-18T13:18:27;8.67;67.44
63202;DHT22;49296;48.188;11.566;2023-11-18T13:20:54;8.47;67.77
63202;DHT22;49296;48.188;11.566;2023-11-18T13:23:20;8.44;68.24
63202;DHT22;49296;48.188;11.566;2023-11-18T13:25:47;8.59;67.99
63202;DHT22;49296;48.188;11.566;2023-11-18T13:28:14;8.47;67.85
63202;DHT22;49296;48.188;11.566;2023-11-18T13:30:42;8.47;68.19
63202;DHT22;49296;48.188;11.566;2023-11-18T13:33:11;8.52;67.38
63202;DHT22;49296;48.188;11.566;2023-11-18T13:35:37;8.64;67.72
63202;DHT22;49296;48.188;11.566;2023-11-18T13:38:03;8.42;67.82
63202;DHT22;49296;48.188;11.566;2023-11-18T13:40:41;8.48;68.78
63202;DHT22;49296;48.188;11.566;2023-11-18T13:43:07;8.64;68.65
63202;DHT22;49296;48.188;11.566;2023-11-18T13:45:34;8.51;68.89
63202;DHT22;49296;48.188;11.566;2023-11-18T13:48:02;8.51;69.11
63202;DHT22;49296;48.188;11.566;2023-11-18T13:50:29;8.54;69.07
63202;DHT22;49296;48.188;11.566;2023-11-18T13:52:55;8.59;69.20
63202;DHT22;49296;48.188;11.566;2023-11-18T13:55:22;8.52;68.52
63202;DHT22;49296;48.188;11.566;2023-11-18T13:57:53;8.72;68.54
63202;DHT22;49296;48.188;11.566;2023-11-18T14:00:21;8.76;68.56
63202;DHT22;49296;48.188;11.566;2023-11-18T14:02:48;8.92;68.46
63202;DHT22;49296;48.188;11.566;2023-11-18T14:05:18;8.93;68.40
63202;DHT22;49296;48.188;11.566;2023-11-18T14:07:47;8.96;68.38
63202;DHT22;49296;48.188;11.566;2023-11-18T14:10:14;8.80;69.07
63202;DHT22;49296;48.188;11.566;2023-11-18T14:12:57;8.67;69.54
63202;DHT22;49296;48.188;11.566;2023-11-18T14:15:24;8.69;69.35
63202;DHT22;49296;48.188;11.566;2023-11-18T14:17:50;8.83;69.15
63202;DHT22;49296;48.188;11.566;2023-11-18T14:20:19;8.92;69.03
63202;DHT22;49296;48.188;11.566;2023-11-18T14:22:47;8.85;68.38
63202;DHT22;49296;48.188;11.566;2023-11-18T14:25:13;8.79;68.26
63202;DHT22;49296;48.188;11.566;2023-11-18T14:27:40;8.85;68.75
63202;DHT22;49296;48.188;11.566;2023-11-18T14:30:07;9.04;68.48
63202;DHT22;49296;48.188;11.566;2023-11-18T14:32:34;9.14;68.28
63202;DHT22;49296;48.188;11.566;2023-11-18T14:35:01;8.67;68.70
63202;DHT22;49296;48.188;11.566;2023-11-18T14:37:32;8.42;69.30
63202;DHT22;49296;48.188;11.566;2023-11-18T14:39:59;8.67;69.15
63202;DHT22;49296;48.188;11.566;2023-11-18T14:42:25;8.68;68.70
63202;DHT22;49296;48.188;11.566;2023-11-18T14:44:52;8.69;68.67
63202;DHT22;49296;48.188;11.566;2023-11-18T14:47:18;8.55;68.69
63202;DHT22;49296;48.188;11.566;2023-11-18T14:49:45;8.57;69.16
63202;DHT22;49296;48.188;11.566;2023-11-18T14:52:11;8.62;68.88
63202;DHT22;49296;48.188;11.566;2023-11-18T14:54:39;8.29;69.62
63202;DHT22;49296;48.188;11.566;2023-11-18T14:57:06;8.41;69.54
63202;DHT22;49296;48.188;11.566;2023-11-18T14:59:33;8.50;69.42
63202;DHT22;49296;48.188;11.566;2023-11-18T15:02:00;8.64;69.39
63202;DHT22;49296;48.188;11.566;2023-11-18T15:04:26;8.50;69.59
63202;DHT22;49296;48.188;11.566;2023-11-18T15:06:53;8.69;69.18
63202;DHT22;49296;48.188;11.566;2023-11-18T15:09:20;8.71;69.44
63202;DHT22;49296;48.188;11.566;2023-11-18T15:11:50;8.79;69.37
63202;DHT22;49296;48.188;11.566;2023-11-18T15:14:18;8.59;69.27
63202;DHT22;49296;48.188;11.566;2023-11-18T15:16:44;8.47;69.35
63202;DHT22;49296;48.188;11.566;2023-11-18T15:19:12;8.51;69.53
63202;DHT22;49296;48.188;11.566;2023-11-18T15:21:38;8.30;69.92
63202;DHT22;49296;48.188;11.566;2023-11-18T15:24:05;8.31;69.75
63202;DHT22;49296;48.188;11.566;2023-11-18T15:26:33;8.33;69.87
63202;DHT22;49296;48.188;11.566;2023-11-18T15:29:02;8.40;69.92
63202;DHT22;49296;48.188;11.566;2023-11-18T15:31:34;8.42;69.77
63202;DHT22;49296;48.188;11.566;2023-11-18T15:34:01;8.52;69.24
63202;DHT22;49296;48.188;11.566;2023-11-18T15:36:27;8.61;69.05